sensor_id;sensor_type;location;lat;lon;timestamp;pressure;altitude;pressure_sealevel;temperature;humidity
61026;BME280;46911;32.650;-16.902;2022-09-09T00:00:24;102007.81;;;22.11;75.65
61026;BME280;46911;32.650;-16.902;2022-09-09T00:02:30;102000.44;;;22.03;75.82
61026;BME280;46911;32.650;-16.902;2022-09-09T00:04:37;102015.13;;;22.11;75.86
61026;BME280;46911;32.650;-16.902;2022-09-09T00:09:19;102005.88;;;22.03;76.13
61026;BME280;46911;32.650;-16.902;2022-09-09T00:11:28;102005.16;;;22.01;75.96
61026;BME280;46911;32.650;-16.902;2022-09-09T00:13:42;101996.28;;;21.99;76.00
61026;BME280;46911;32.650;-16.902;2022-09-09T00:16:04;102007.47;;;21.96;75.91
61026;BME280;46911;32.650;-16.902;2022-09-09T00:18:28;102006.75;;;21.94;75.68
61026;BME280;46911;32.650;-16.902;2022-09-09T00:22:51;101996.06;;;21.83;75.93
61026;BME280;46911;32.650;-16.902;2022-09-09T00:25:08;102006.34;;;21.89;75.77
61026;BME280;46911;32.650;-16.902;2022-09-09T00:27:44;102005.22;;;21.82;75.84
61026;BME280;46911;32.650;-16.902;2022-09-09T00:29:53;102014.91;;;21.84;75.97
61026;BME280;46911;32.650;-16.902;2022-09-09T00:32:00;102003.53;;;21.81;75.67
61026;BME280;46911;32.650;-16.902;2022-09-09T00:34:12;102002.06;;;21.77;75.63
61026;BME280;46911;32.650;-16.902;2022-09-09T00:36:18;102012.50;;;21.81;75.67
61026;BME280;46911;32.650;-16.902;2022-09-09T00:38:37;102004.78;;;21.86;75.61
61026;BME280;46911;32.650;-16.902;2022-09-09T00:41:00;102001.66;;;21.81;75.61
61026;BME280;46911;32.650;-16.902;2022-09-09T00:43:14;101994.34;;;21.82;75.74
61026;BME280;46911;32.650;-16.902;2022-09-09T00:45:46;101990.94;;;21.80;75.46
61026;BME280;46911;32.650;-16.902;2022-09-09T00:47:56;101975.53;;;21.70;75.83
61026;BME280;46911;32.650;-16.902;2022-09-09T00:50:00;101990.50;;;21.74;75.86
61026;BME280;46911;32.650;-16.902;2022-09-09T00:53:02;101977.66;;;21.67;75.61
61026;BME280;46911;32.650;-16.902;2022-09-09T00:59:26;101981.09;;;21.69;75.45
61026;BME280;46911;32.650;-16.902;2022-09-09T01:01:31;101945.66;;;21.51;75.41
61026;BME280;46911;32.650;-16.902;2022-09-09T01:03:41;101973.38;;;21.64;75.48
61026;BME280;46911;32.650;-16.902;2022-09-09T01:07:54;101955.38;;;21.63;75.37
61026;BME280;46911;32.650;-16.902;2022-09-09T01:09:59;101964.97;;;21.67;75.40
61026;BME280;46911;32.650;-16.902;2022-09-09T01:14:40;101956.66;;;21.59;75.33
61026;BME280;46911;32.650;-16.902;2022-09-09T01:16:43;101954.53;;;21.53;75.57
61026;BME280;46911;32.650;-16.902;2022-09-09T01:18:51;101964.13;;;21.57;75.20
61026;BME280;46911;32.650;-16.902;2022-09-09T01:28:23;101933.69;;;21.34;75.63
61026;BME280;46911;32.650;-16.902;2022-09-09T01:30:38;101962.94;;;21.50;75.99
61026;BME280;46911;32.650;-16.902;2022-09-09T01:32:44;101962.09;;;21.49;76.17
61026;BME280;46911;32.650;-16.902;2022-09-09T01:34:48;101961.41;;;21.47;75.97
61026;BME280;46911;32.650;-16.902;2022-09-09T01:38:55;101945.53;;;21.43;75.91
61026;BME280;46911;32.650;-16.902;2022-09-09T01:41:00;101951.53;;;21.46;75.91
61026;BME280;46911;32.650;-16.902;2022-09-09T01:43:13;101944.25;;;21.47;75.88
61026;BME280;46911;32.650;-16.902;2022-09-09T01:45:17;101937.53;;;21.41;76.18
61026;BME280;46911;32.650;-16.902;2022-09-09T01:47:17;101940.09;;;21.43;76.15
61026;BME280;46911;32.650;-16.902;2022-09-09T01:49:41;101925.81;;;21.40;75.81
61026;BME280;46911;32.650;-16.902;2022-09-09T01:51:54;101935.41;;;21.45;76.06
61026;BME280;46911;32.650;-16.902;2022-09-09T01:54:04;101930.81;;;21.45;76.17
61026;BME280;46911;32.650;-16.902;2022-09-09T02:01:05;101929.56;;;21.39;76.41
61026;BME280;46911;32.650;-16.902;2022-09-09T02:03:21;101930.53;;;21.38;76.58
61026;BME280;46911;32.650;-16.902;2022-09-09T02:05:41;101925.28;;;21.37;77.18
61026;BME280;46911;32.650;-16.902;2022-09-09T02:08:07;101929.13;;;21.34;77.37
61026;BME280;46911;32.650;-16.902;2022-09-09T02:11:05;101924.84;;;21.32;77.94
61026;BME280;46911;32.650;-16.902;2022-09-09T02:13:05;101927.72;;;21.30;78.31
61026;BME280;46911;32.650;-16.902;2022-09-09T02:15:22;101924.13;;;21.30;78.47
61026;BME280;46911;32.650;-16.902;2022-09-09T02:17:31;101929.69;;;21.28;78.79
61026;BME280;46911;32.650;-16.902;2022-09-09T02:19:48;101918.72;;;21.20;78.63
61026;BME280;46911;32.650;-16.902;2022-09-09T02:21:59;101923.72;;;21.24;78.62
61026;BME280;46911;32.650;-16.902;2022-09-09T02:24:06;101924.88;;;21.22;78.75
61026;BME280;46911;32.650;-16.902;2022-09-09T02:26:17;101924.72;;;21.23;78.86
61026;BME280;46911;32.650;-16.902;2022-09-09T02:28:30;101925.72;;;21.22;78.57
61026;BME280;46911;32.650;-16.902;2022-09-09T02:30:36;101906.75;;;21.13;78.55
61026;BME280;46911;32.650;-16.902;2022-09-09T02:32:39;101926.28;;;21.16;78.57
61026;BME280;46911;32.650;-16.902;2022-09-09T02:34:47;101911.59;;;21.09;78.49
61026;BME280;46911;32.650;-16.902;2022-09-09T02:36:54;101923.03;;;21.13;78.78
61026;BME280;46911;32.650;-16.902;2022-09-09T02:39:00;101912.75;;;21.06;78.54
61026;BME280;46911;32.650;-16.902;2022-09-09T02:41:08;101927.88;;;21.09;78.44
61026;BME280;46911;32.650;-16.902;2022-09-09T02:43:14;101918.59;;;21.02;78.33
61026;BME280;46911;32.650;-16.902;2022-09-09T02:45:24;101929.84;;;21.07;78.27
61026;BME280;46911;32.650;-16.902;2022-09-09T02:52:15;101925.56;;;21.04;78.29
61026;BME280;46911;32.650;-16.902;2022-09-09T02:54:29;101920.16;;;21.04;78.23
61026;BME280;46911;32.650;-16.902;2022-09-09T02:56:41;101908.19;;;20.97;78.60
61026;BME280;46911;32.650;-16.902;2022-09-09T02:58:44;101915.03;;;21.01;78.53
61026;BME280;46911;32.650;-16.902;2022-09-09T03:00:49;101911.63;;;20.99;78.74
61026;BME280;46911;32.650;-16.902;2022-09-09T03:02:52;101908.91;;;20.99;78.93
61026;BME280;46911;32.650;-16.902;2022-09-09T03:04:55;101911.63;;;20.99;79.03
61026;BME280;46911;32.650;-16.902;2022-09-09T03:06:59;101898.63;;;20.93;78.91
61026;BME280;46911;32.650;-16.902;2022-09-09T03:09:00;101912.59;;;20.98;79.21
61026;BME280;46911;32.650;-16.902;2022-09-09T03:11:04;101905.47;;;20.97;78.87
61026;BME280;46911;32.650;-16.902;2022-09-09T03:13:09;101898.03;;;20.89;79.24
61026;BME280;46911;32.650;-16.902;2022-09-09T03:15:16;101909.91;;;20.98;79.20
61026;BME280;46911;32.650;-16.902;2022-09-09T03:17:23;101913.44;;;20.99;78.68
61026;BME280;46911;32.650;-16.902;2022-09-09T03:19:30;101907.19;;;20.98;78.88
61026;BME280;46911;32.650;-16.902;2022-09-09T03:21:34;101910.88;;;20.97;78.90
61026;BME280;46911;32.650;-16.902;2022-09-09T03:23:36;101901.63;;;20.90;78.44
61026;BME280;46911;32.650;-16.902;2022-09-09T03:25:48;101908.47;;;20.94;78.27
61026;BME280;46911;32.650;-16.902;2022-09-09T03:27:55;101913.91;;;20.94;78.67
61026;BME280;46911;32.650;-16.902;2022-09-09T03:30:02;101912.19;;;20.93;78.44
61026;BME280;46911;32.650;-16.902;2022-09-09T03:32:04;101908.72;;;20.91;78.70
61026;BME280;46911;32.650;-16.902;2022-09-09T03:34:13;101901.03;;;20.86;78.85
61026;BME280;46911;32.650;-16.902;2022-09-09T03:36:17;101911.44;;;20.91;78.67
61026;BME280;46911;32.650;-16.902;2022-09-09T03:38:24;101903.59;;;20.88;78.64
61026;BME280;46911;32.650;-16.902;2022-09-09T03:40:28;101900.63;;;20.81;78.88
61026;BME280;46911;32.650;-16.902;2022-09-09T03:42:29;101901.88;;;20.87;78.83
61026;BME280;46911;32.650;-16.902;2022-09-09T03:44:34;101886.22;;;20.81;78.81
61026;BME280;46911;32.650;-16.902;2022-09-09T03:46:35;101887.19;;;20.80;78.99
61026;BME280;46911;32.650;-16.902;2022-09-09T03:48:36;101904.59;;;20.87;78.98
61026;BME280;46911;32.650;-16.902;2022-09-09T03:50:47;101898.34;;;20.86;78.75
61026;BME280;46911;32.650;-16.902;2022-09-09T03:52:48;101901.03;;;20.86;78.97
61026;BME280;46911;32.650;-16.902;2022-09-09T03:54:54;101896.19;;;20.80;78.63
61026;BME280;46911;32.650;-16.902;2022-09-09T03:56:57;101893.75;;;20.77;78.50
61026;BME280;46911;32.650;-16.902;2022-09-09T03:58:59;101907.75;;;20.82;78.83
61026;BME280;46911;32.650;-16.902;2022-09-09T04:01:03;101898.59;;;20.73;78.76
61026;BME280;46911;32.650;-16.902;2022-09-09T04:03:11;101897.91;;;20.71;79.12
61026;BME280;46911;32.650;-16.902;2022-09-09T04:05:14;101907.47;;;20.76;78.85
61026;BME280;46911;32.650;-16.902;2022-09-09T04:07:20;101897.19;;;20.69;78.95
61026;BME280;46911;32.650;-16.902;2022-09-09T04:09:24;101891.19;;;20.66;79.35
61026;BME280;46911;32.650;-16.902;2022-09-09T04:11:26;101900.47;;;20.73;79.20
61026;BME280;46911;32.650;-16.902;2022-09-09T04:13:29;101905.06;;;20.72;79.69
61026;BME280;46911;32.650;-16.902;2022-09-09T04:15:36;101894.59;;;20.68;79.47
61026;BME280;46911;32.650;-16.902;2022-09-09T04:17:43;101903.19;;;20.73;79.65
61026;BME280;46911;32.650;-16.902;2022-09-09T04:19:44;101898.75;;;20.72;79.44
61026;BME280;46911;32.650;-16.902;2022-09-09T04:21:45;101902.47;;;20.71;79.58
61026;BME280;46911;32.650;-16.902;2022-09-09T04:23:50;101899.16;;;20.67;79.62
61026;BME280;46911;32.650;-16.902;2022-09-09T04:25:55;101901.63;;;20.70;79.67
61026;BME280;46911;32.650;-16.902;2022-09-09T04:28:00;101894.00;;;20.64;79.61
61026;BME280;46911;32.650;-16.902;2022-09-09T04:30:04;101898.13;;;20.68;79.69
61026;BME280;46911;32.650;-16.902;2022-09-09T04:32:08;101879.03;;;20.60;79.47
61026;BME280;46911;32.650;-16.902;2022-09-09T04:34:09;101884.59;;;20.68;79.39
61026;BME280;46911;32.650;-16.902;2022-09-09T04:36:13;101888.78;;;20.72;78.83
61026;BME280;46911;32.650;-16.902;2022-09-09T04:38:15;101897.75;;;20.73;79.44
61026;BME280;46911;32.650;-16.902;2022-09-09T04:40:16;101899.19;;;20.77;79.15
61026;BME280;46911;32.650;-16.902;2022-09-09T04:42:17;101900.31;;;20.74;79.50
61026;BME280;46911;32.650;-16.902;2022-09-09T04:44:21;101893.63;;;20.69;79.16
61026;BME280;46911;32.650;-16.902;2022-09-09T04:46:23;101893.75;;;20.67;79.51
61026;BME280;46911;32.650;-16.902;2022-09-09T04:48:27;101889.47;;;20.65;79.15
61026;BME280;46911;32.650;-16.902;2022-09-09T04:50:31;101899.31;;;20.66;79.40
61026;BME280;46911;32.650;-16.902;2022-09-09T04:52:34;101904.31;;;20.70;79.53
61026;BME280;46911;32.650;-16.902;2022-09-09T04:54:36;101901.28;;;20.64;79.31
61026;BME280;46911;32.650;-16.902;2022-09-09T04:56:40;101914.19;;;20.71;79.53
61026;BME280;46911;32.650;-16.902;2022-09-09T04:58:49;101918.31;;;20.76;78.92
61026;BME280;46911;32.650;-16.902;2022-09-09T05:00:51;101902.19;;;20.74;78.66
61026;BME280;46911;32.650;-16.902;2022-09-09T05:03:02;101912.72;;;20.87;78.54
61026;BME280;46911;32.650;-16.902;2022-09-09T05:05:07;101914.59;;;20.86;78.33
61026;BME280;46911;32.650;-16.902;2022-09-09T05:07:12;101905.88;;;20.83;78.37
61026;BME280;46911;32.650;-16.902;2022-09-09T05:09:14;101905.63;;;20.86;78.48
61026;BME280;46911;32.650;-16.902;2022-09-09T05:11:19;101918.75;;;20.90;78.17
61026;BME280;46911;32.650;-16.902;2022-09-09T05:13:20;101905.75;;;20.84;78.04
61026;BME280;46911;32.650;-16.902;2022-09-09T05:15:23;101898.47;;;20.85;78.00
61026;BME280;46911;32.650;-16.902;2022-09-09T05:17:24;101899.78;;;20.81;77.81
61026;BME280;46911;32.650;-16.902;2022-09-09T05:19:25;101910.31;;;20.84;77.43
61026;BME280;46911;32.650;-16.902;2022-09-09T05:21:28;101916.19;;;20.89;76.96
61026;BME280;46911;32.650;-16.902;2022-09-09T05:23:34;101909.91;;;20.88;76.83
61026;BME280;46911;32.650;-16.902;2022-09-09T05:25:35;101903.19;;;20.83;76.65
61026;BME280;46911;32.650;-16.902;2022-09-09T05:27:39;101902.47;;;20.81;76.78
61026;BME280;46911;32.650;-16.902;2022-09-09T05:29:42;101910.91;;;20.87;76.74
61026;BME280;46911;32.650;-16.902;2022-09-09T05:31:48;101918.16;;;20.87;76.65
61026;BME280;46911;32.650;-16.902;2022-09-09T05:33:53;101917.31;;;20.86;76.76
61026;BME280;46911;32.650;-16.902;2022-09-09T05:36:09;101914.75;;;20.85;76.59
61026;BME280;46911;32.650;-16.902;2022-09-09T05:38:11;101896.31;;;20.79;76.70
61026;BME280;46911;32.650;-16.902;2022-09-09T05:40:14;101910.31;;;20.84;76.85
61026;BME280;46911;32.650;-16.902;2022-09-09T05:42:18;101913.03;;;20.84;77.07
61026;BME280;46911;32.650;-16.902;2022-09-09T05:44:21;101914.16;;;20.81;76.85
61026;BME280;46911;32.650;-16.902;2022-09-09T05:46:27;101912.44;;;20.80;77.19
61026;BME280;46911;32.650;-16.902;2022-09-09T05:48:31;101909.75;;;20.80;77.21
61026;BME280;46911;32.650;-16.902;2022-09-09T05:50:40;101895.34;;;20.70;76.95
61026;BME280;46911;32.650;-16.902;2022-09-09T05:52:41;101908.47;;;20.74;77.04
61026;BME280;46911;32.650;-16.902;2022-09-09T05:54:45;101896.72;;;20.64;76.93
61026;BME280;46911;32.650;-16.902;2022-09-09T05:56:48;101917.13;;;20.68;77.49
61026;BME280;46911;32.650;-16.902;2022-09-09T05:58:51;101899.88;;;20.60;77.67
61026;BME280;46911;32.650;-16.902;2022-09-09T06:01:17;101918.41;;;20.64;77.82
61026;BME280;46911;32.650;-16.902;2022-09-09T06:03:19;101904.69;;;20.56;77.62
61026;BME280;46911;32.650;-16.902;2022-09-09T06:05:27;101911.00;;;20.56;77.59
61026;BME280;46911;32.650;-16.902;2022-09-09T06:07:31;101910.72;;;20.60;77.57
61026;BME280;46911;32.650;-16.902;2022-09-09T06:09:34;101922.84;;;20.65;77.39
61026;BME280;46911;32.650;-16.902;2022-09-09T06:11:42;101917.13;;;20.58;77.45
61026;BME280;46911;32.650;-16.902;2022-09-09T06:13:49;101929.25;;;20.64;77.25
61026;BME280;46911;32.650;-16.902;2022-09-09T06:15:56;101932.97;;;20.63;77.67
61026;BME280;46911;32.650;-16.902;2022-09-09T06:17:59;101925.84;;;20.62;77.61
61026;BME280;46911;32.650;-16.902;2022-09-09T06:20:03;101924.13;;;20.61;77.52
61026;BME280;46911;32.650;-16.902;2022-09-09T06:22:07;101930.28;;;20.63;77.30
61026;BME280;46911;32.650;-16.902;2022-09-09T06:24:10;101919.97;;;20.57;77.62
61026;BME280;46911;32.650;-16.902;2022-09-09T06:26:20;101931.25;;;20.62;77.72
61026;BME280;46911;32.650;-16.902;2022-09-09T06:28:25;101937.53;;;20.63;77.49
61026;BME280;46911;32.650;-16.902;2022-09-09T06:30:26;101925.84;;;20.62;77.56
61026;BME280;46911;32.650;-16.902;2022-09-09T06:32:28;101918.41;;;20.54;77.70
61026;BME280;46911;32.650;-16.902;2022-09-09T06:34:29;101931.13;;;20.64;77.17
61026;BME280;46911;32.650;-16.902;2022-09-09T06:36:39;101924.13;;;20.61;77.56
61026;BME280;46911;32.650;-16.902;2022-09-09T06:38:41;101925.53;;;20.55;77.32
61026;BME280;46911;32.650;-16.902;2022-09-09T06:40:57;101939.38;;;20.62;77.75
61026;BME280;46911;32.650;-16.902;2022-09-09T06:43:00;101948.22;;;20.64;77.32
61026;BME280;46911;32.650;-16.902;2022-09-09T06:45:15;101943.38;;;20.68;77.58
61026;BME280;46911;32.650;-16.902;2022-09-09T06:47:27;101940.25;;;20.63;77.46
61026;BME280;46911;32.650;-16.902;2022-09-09T06:49:31;101942.94;;;20.63;77.52
61026;BME280;46911;32.650;-16.902;2022-09-09T06:51:37;101942.13;;;20.72;77.03
61026;BME280;46911;32.650;-16.902;2022-09-09T06:53:45;101947.84;;;20.79;76.79
61026;BME280;46911;32.650;-16.902;2022-09-09T06:55:49;101933.84;;;20.73;77.08
61026;BME280;46911;32.650;-16.902;2022-09-09T06:57:51;101947.59;;;20.82;76.74
61026;BME280;46911;32.650;-16.902;2022-09-09T06:59:56;101951.00;;;20.84;77.04
61026;BME280;46911;32.650;-16.902;2022-09-09T07:02:03;101942.16;;;20.82;76.69
61026;BME280;46911;32.650;-16.902;2022-09-09T07:04:07;101946.56;;;20.83;76.90
61026;BME280;46911;32.650;-16.902;2022-09-09T07:06:18;101948.44;;;20.92;76.81
61026;BME280;46911;32.650;-16.902;2022-09-09T07:08:19;101940.44;;;20.90;76.54
61026;BME280;46911;32.650;-16.902;2022-09-09T07:10:23;101945.84;;;21.00;76.40
61026;BME280;46911;32.650;-16.902;2022-09-09T07:12:26;101959.84;;;21.05;76.41
61026;BME280;46911;32.650;-16.902;2022-09-09T07:14:32;101945.00;;;21.10;76.15
61026;BME280;46911;32.650;-16.902;2022-09-09T07:16:41;101944.00;;;21.11;76.29
61026;BME280;46911;32.650;-16.902;2022-09-09T07:18:48;101956.72;;;21.20;75.91
61026;BME280;46911;32.650;-16.902;2022-09-09T07:20:54;101956.13;;;21.26;75.41
61026;BME280;46911;32.650;-16.902;2022-09-09T07:22:58;101959.13;;;21.33;75.40
61026;BME280;46911;32.650;-16.902;2022-09-09T07:25:00;101952.56;;;21.35;74.93
61026;BME280;46911;32.650;-16.902;2022-09-09T07:27:03;101964.53;;;21.43;74.82
61026;BME280;46911;32.650;-16.902;2022-09-09T07:29:09;101943.53;;;21.45;73.99
61026;BME280;46911;32.650;-16.902;2022-09-09T07:31:18;101953.41;;;21.55;73.75
61026;BME280;46911;32.650;-16.902;2022-09-09T07:33:23;101949.25;;;21.61;73.91
61026;BME280;46911;32.650;-16.902;2022-09-09T07:35:27;101934.09;;;21.59;73.71
61026;BME280;46911;32.650;-16.902;2022-09-09T07:37:30;101952.66;;;21.73;73.70
61026;BME280;46911;32.650;-16.902;2022-09-09T07:39:33;101951.75;;;21.82;73.25
61026;BME280;46911;32.650;-16.902;2022-09-09T07:41:40;101952.72;;;21.91;73.17
61026;BME280;46911;32.650;-16.902;2022-09-09T07:43:43;101950.41;;;21.96;72.54
61026;BME280;46911;32.650;-16.902;2022-09-09T07:45:47;101949.50;;;22.05;72.27
61026;BME280;46911;32.650;-16.902;2022-09-09T07:47:48;101944.19;;;22.14;72.15
61026;BME280;46911;32.650;-16.902;2022-09-09T07:49:49;101933.31;;;22.14;71.71
61026;BME280;46911;32.650;-16.902;2022-09-09T07:51:55;101943.00;;;22.26;71.25
61026;BME280;46911;32.650;-16.902;2022-09-09T07:53:58;101946.53;;;22.36;70.86
61026;BME280;46911;32.650;-16.902;2022-09-09T07:56:09;101930.22;;;22.36;70.70
61026;BME280;46911;32.650;-16.902;2022-09-09T07:58:11;101937.59;;;22.44;70.36
61026;BME280;46911;32.650;-16.902;2022-09-09T08:00:12;101939.56;;;22.52;70.09
61026;BME280;46911;32.650;-16.902;2022-09-09T08:02:23;101946.31;;;22.66;69.84
61026;BME280;46911;32.650;-16.902;2022-09-09T08:04:28;101933.22;;;22.61;69.54
61026;BME280;46911;32.650;-16.902;2022-09-09T08:06:38;101948.69;;;22.79;69.50
61026;BME280;46911;32.650;-16.902;2022-09-09T08:08:41;101944.97;;;22.80;69.33
61026;BME280;46911;32.650;-16.902;2022-09-09T08:10:44;101950.88;;;22.93;69.12
61026;BME280;46911;32.650;-16.902;2022-09-09T08:12:45;101947.09;;;22.94;69.21
61026;BME280;46911;32.650;-16.902;2022-09-09T08:14:50;101957.59;;;23.07;69.05
61026;BME280;46911;32.650;-16.902;2022-09-09T08:16:52;101964.16;;;23.14;68.79
61026;BME280;46911;32.650;-16.902;2022-09-09T08:18:58;101960.97;;;23.19;68.70
61026;BME280;46911;32.650;-16.902;2022-09-09T08:21:13;101956.13;;;23.31;68.54
61026;BME280;46911;32.650;-16.902;2022-09-09T08:23:15;101962.81;;;23.36;68.86
61026;BME280;46911;32.650;-16.902;2022-09-09T08:25:16;101961.03;;;23.45;68.49
61026;BME280;46911;32.650;-16.902;2022-09-09T08:27:22;101956.09;;;23.49;68.60
61026;BME280;46911;32.650;-16.902;2022-09-09T08:29:25;101964.84;;;23.61;68.31
61026;BME280;46911;32.650;-16.902;2022-09-09T08:31:37;101966.78;;;23.68;68.80
61026;BME280;46911;32.650;-16.902;2022-09-09T08:33:41;101969.72;;;23.75;68.50
61026;BME280;46911;32.650;-16.902;2022-09-09T08:35:50;101968.03;;;23.82;68.39
61026;BME280;46911;32.650;-16.902;2022-09-09T08:37:54;101969.59;;;23.85;68.38
61026;BME280;46911;32.650;-16.902;2022-09-09T08:39:57;101976.66;;;23.96;68.42
61026;BME280;46911;32.650;-16.902;2022-09-09T08:46:42;101975.41;;;24.16;70.22
61026;BME280;46911;32.650;-16.902;2022-09-09T08:49:04;101977.56;;;24.04;71.73
61026;BME280;46911;32.650;-16.902;2022-09-09T08:51:09;101985.25;;;24.09;71.61
61026;BME280;46911;32.650;-16.902;2022-09-09T08:53:24;101990.38;;;24.04;71.82
61026;BME280;46911;32.650;-16.902;2022-09-09T08:57:33;101977.56;;;24.04;72.06
61026;BME280;46911;32.650;-16.902;2022-09-09T08:59:34;101980.63;;;24.01;72.89
61026;BME280;46911;32.650;-16.902;2022-09-09T09:08:48;101991.94;;;25.42;69.70
61026;BME280;46911;32.650;-16.902;2022-09-09T09:10:57;101984.03;;;25.47;67.52
61026;BME280;46911;32.650;-16.902;2022-09-09T09:13:10;101981.97;;;25.82;68.12
61026;BME280;46911;32.650;-16.902;2022-09-09T09:15:21;101992.47;;;26.18;65.83
61026;BME280;46911;32.650;-16.902;2022-09-09T09:17:35;101998.88;;;26.33;65.11
61026;BME280;46911;32.650;-16.902;2022-09-09T09:19:46;101983.44;;;26.49;65.20
61026;BME280;46911;32.650;-16.902;2022-09-09T09:21:59;101994.69;;;26.54;64.18
61026;BME280;46911;32.650;-16.902;2022-09-09T09:24:20;101977.22;;;27.33;62.85
61026;BME280;46911;32.650;-16.902;2022-09-09T09:26:32;101990.47;;;27.97;61.21
61026;BME280;46911;32.650;-16.902;2022-09-09T09:28:34;101986.78;;;27.90;60.36
61026;BME280;46911;32.650;-16.902;2022-09-09T09:31:11;101993.97;;;28.06;59.56
61026;BME280;46911;32.650;-16.902;2022-09-09T09:35:33;101998.44;;;28.37;57.41
61026;BME280;46911;32.650;-16.902;2022-09-09T09:37:35;101989.19;;;28.96;56.81
61026;BME280;46911;32.650;-16.902;2022-09-09T09:39:38;101992.66;;;29.05;57.05
61026;BME280;46911;32.650;-16.902;2022-09-09T09:41:43;101991.72;;;29.19;56.15
61026;BME280;46911;32.650;-16.902;2022-09-09T09:43:53;101991.41;;;28.86;56.92
61026;BME280;46911;32.650;-16.902;2022-09-09T09:45:55;101996.53;;;28.37;58.68
61026;BME280;46911;32.650;-16.902;2022-09-09T09:48:04;102000.94;;;28.68;58.01
61026;BME280;46911;32.650;-16.902;2022-09-09T09:50:16;102006.91;;;28.72;57.84
61026;BME280;46911;32.650;-16.902;2022-09-09T09:52:22;101999.19;;;28.82;57.15
61026;BME280;46911;32.650;-16.902;2022-09-09T09:54:47;102006.06;;;29.15;56.82
61026;BME280;46911;32.650;-16.902;2022-09-09T09:56:48;102010.34;;;28.81;57.99
61026;BME280;46911;32.650;-16.902;2022-09-09T09:58:51;102004.72;;;28.52;58.46
61026;BME280;46911;32.650;-16.902;2022-09-09T10:01:00;101997.72;;;28.50;58.44
61026;BME280;46911;32.650;-16.902;2022-09-09T10:03:36;102016.41;;;28.25;59.48
61026;BME280;46911;32.650;-16.902;2022-09-09T10:05:45;102009.13;;;28.83;57.91
61026;BME280;46911;32.650;-16.902;2022-09-09T10:08:23;102008.03;;;28.63;58.48
61026;BME280;46911;32.650;-16.902;2022-09-09T10:10:34;102014.78;;;28.45;59.10
61026;BME280;46911;32.650;-16.902;2022-09-09T10:12:43;102020.06;;;28.98;57.57
61026;BME280;46911;32.650;-16.902;2022-09-09T10:15:32;102019.97;;;29.28;56.90
61026;BME280;46911;32.650;-16.902;2022-09-09T10:22:33;102032.38;;;29.24;57.45
61026;BME280;46911;32.650;-16.902;2022-09-09T10:25:20;102023.53;;;29.07;57.63
61026;BME280;46911;32.650;-16.902;2022-09-09T10:36:56;102024.81;;;27.93;61.74
61026;BME280;46911;32.650;-16.902;2022-09-09T10:46:05;102033.81;;;28.32;60.93
61026;BME280;46911;32.650;-16.902;2022-09-09T10:55:39;102030.91;;;30.97;53.50
61026;BME280;46911;32.650;-16.902;2022-09-09T10:57:46;102023.91;;;31.01;53.36
61026;BME280;46911;32.650;-16.902;2022-09-09T10:59:53;102017.94;;;30.35;55.08
61026;BME280;46911;32.650;-16.902;2022-09-09T11:02:30;102028.31;;;30.27;55.95
61026;BME280;46911;32.650;-16.902;2022-09-09T11:04:41;102026.50;;;30.05;56.27
61026;BME280;46911;32.650;-16.902;2022-09-09T11:06:48;102020.19;;;30.53;55.67
61026;BME280;46911;32.650;-16.902;2022-09-09T11:08:57;102021.19;;;31.14;53.88
61026;BME280;46911;32.650;-16.902;2022-09-09T11:11:06;102025.88;;;31.81;51.90
61026;BME280;46911;32.650;-16.902;2022-09-09T11:15:46;102026.97;;;30.51;54.09
61026;BME280;46911;32.650;-16.902;2022-09-09T11:17:56;102029.13;;;30.76;53.62
61026;BME280;46911;32.650;-16.902;2022-09-09T11:19:59;102022.47;;;31.12;51.96
61026;BME280;46911;32.650;-16.902;2022-09-09T11:24:31;102027.59;;;31.82;50.20
61026;BME280;46911;32.650;-16.902;2022-09-09T11:26:41;102043.47;;;32.00;49.91
61026;BME280;46911;32.650;-16.902;2022-09-09T11:31:20;102041.34;;;32.74;49.03
61026;BME280;46911;32.650;-16.902;2022-09-09T11:40:27;102032.66;;;33.34;46.48
61026;BME280;46911;32.650;-16.902;2022-09-09T11:42:31;102019.75;;;33.72;45.83
61026;BME280;46911;32.650;-16.902;2022-09-09T11:44:34;102015.31;;;33.71;44.81
61026;BME280;46911;32.650;-16.902;2022-09-09T11:46:39;102024.50;;;34.09;44.77
61026;BME280;46911;32.650;-16.902;2022-09-09T11:48:59;102018.19;;;34.57;44.20
61026;BME280;46911;32.650;-16.902;2022-09-09T11:51:07;102022.50;;;35.14;42.28
61026;BME280;46911;32.650;-16.902;2022-09-09T11:53:21;102021.03;;;35.11;42.72
61026;BME280;46911;32.650;-16.902;2022-09-09T11:55:27;102022.69;;;34.40;43.36
61026;BME280;46911;32.650;-16.902;2022-09-09T11:57:31;102025.53;;;33.70;45.01
61026;BME280;46911;32.650;-16.902;2022-09-09T11:59:33;102014.69;;;34.31;43.68
61026;BME280;46911;32.650;-16.902;2022-09-09T12:01:41;102022.97;;;34.50;43.06
61026;BME280;46911;32.650;-16.902;2022-09-09T12:03:52;102021.88;;;32.94;46.51
61026;BME280;46911;32.650;-16.902;2022-09-09T12:05:59;102026.44;;;33.90;44.69
61026;BME280;46911;32.650;-16.902;2022-09-09T12:08:05;102029.75;;;33.22;46.20
61026;BME280;46911;32.650;-16.902;2022-09-09T12:10:34;102027.41;;;32.94;46.58
61026;BME280;46911;32.650;-16.902;2022-09-09T12:12:40;102022.09;;;31.68;49.28
61026;BME280;46911;32.650;-16.902;2022-09-09T12:16:42;102011.06;;;31.35;50.58
61026;BME280;46911;32.650;-16.902;2022-09-09T12:18:43;102006.16;;;31.17;50.32
61026;BME280;46911;32.650;-16.902;2022-09-09T12:25:23;102010.09;;;30.26;53.54
61026;BME280;46911;32.650;-16.902;2022-09-09T12:28:15;102018.44;;;30.04;53.77
61026;BME280;46911;32.650;-16.902;2022-09-09T12:30:17;102010.13;;;29.91;53.79